sensor_id;sensor_type;location;lat;lon;timestamp;P1;durP1;ratioP1;P2;durP2;ratioP2
34541;SDS011;20784;51.332;12.410;2022-08-19T00:03:02;28.13;;;20.17;;
34541;SDS011;20784;51.332;12.410;2022-08-19T00:06:05;24.30;;;19.80;;
34541;SDS011;20784;51.332;12.410;2022-08-19T00:08:48;25.95;;;19.77;;
34541;SDS011;20784;51.332;12.410;2022-08-19T00:11:49;23.55;;;19.42;;
34541;SDS011;20784;51.332;12.410;2022-08-19T00:25:11;22.77;;;19.73;;
34541;SDS011;20784;51.332;12.410;2022-08-19T00:35:37;29.65;;;22.00;;
34541;SDS011;20784;51.332;12.410;2022-08-19T00:38:34;28.17;;;21.58;;
34541;SDS011;20784;51.332;12.410;2022-08-19T00:41:15;28.58;;;22.27;;
34541;SDS011;20784;51.332;12.410;2022-08-19T00:47:28;32.13;;;22.23;;
34541;SDS011;20784;51.332;12.410;2022-08-19T00:50:18;25.63;;;21.85;;
34541;SDS011;20784;51.332;12.410;2022-08-19T00:52:46;28.33;;;22.88;;
34541;SDS011;20784;51.332;12.410;2022-08-19T00:55:26;25.38;;;21.90;;
34541;SDS011;20784;51.332;12.410;2022-08-19T00:58:01;29.23;;;22.73;;
34541;SDS011;20784;51.332;12.410;2022-08-19T01:00:30;28.08;;;21.80;;
34541;SDS011;20784;51.332;12.410;2022-08-19T01:03:23;28.50;;;23.65;;
34541;SDS011;20784;51.332;12.410;2022-08-19T01:06:10;30.88;;;23.60;;
34541;SDS011;20784;51.332;12.410;2022-08-19T01:08:39;26.52;;;22.52;;
34541;SDS011;20784;51.332;12.410;2022-08-19T01:11:34;31.63;;;23.95;;
34541;SDS011;20784;51.332;12.410;2022-08-19T01:14:03;30.65;;;23.35;;
34541;SDS011;20784;51.332;12.410;2022-08-19T01:16:32;30.27;;;24.90;;
34541;SDS011;20784;51.332;12.410;2022-08-19T01:19:27;34.88;;;24.00;;
34541;SDS011;20784;51.332;12.410;2022-08-19T01:25:05;29.77;;;23.90;;
34541;SDS011;20784;51.332;12.410;2022-08-19T01:28:13;40.25;;;24.80;;
34541;SDS011;20784;51.332;12.410;2022-08-19T01:30:48;29.75;;;24.98;;
34541;SDS011;20784;51.332;12.410;2022-08-19T01:33:19;30.88;;;24.30;;
34541;SDS011;20784;51.332;12.410;2022-08-19T01:39:24;31.08;;;25.90;;
34541;SDS011;20784;51.332;12.410;2022-08-19T01:41:56;36.65;;;26.42;;
34541;SDS011;20784;51.332;12.410;2022-08-19T01:44:40;31.60;;;26.45;;
34541;SDS011;20784;51.332;12.410;2022-08-19T01:47:29;32.28;;;27.20;;
34541;SDS011;20784;51.332;12.410;2022-08-19T01:53:03;31.33;;;26.27;;
34541;SDS011;20784;51.332;12.410;2022-08-19T01:55:33;35.03;;;27.33;;
34541;SDS011;20784;51.332;12.410;2022-08-19T02:01:31;35.72;;;29.65;;
34541;SDS011;20784;51.332;12.410;2022-08-19T02:04:02;39.60;;;29.20;;
34541;SDS011;20784;51.332;12.410;2022-08-19T02:07:12;35.13;;;28.95;;
34541;SDS011;20784;51.332;12.410;2022-08-19T02:09:46;37.33;;;28.20;;
34541;SDS011;20784;51.332;12.410;2022-08-19T02:12:15;34.05;;;27.23;;
34541;SDS011;20784;51.332;12.410;2022-08-19T02:14:50;31.38;;;27.60;;
34541;SDS011;20784;51.332;12.410;2022-08-19T02:17:18;35.42;;;29.23;;
34541;SDS011;20784;51.332;12.410;2022-08-19T02:19:47;31.90;;;26.40;;
34541;SDS011;20784;51.332;12.410;2022-08-19T02:22:16;34.60;;;27.95;;
34541;SDS011;20784;51.332;12.410;2022-08-19T02:24:47;33.28;;;27.98;;
34541;SDS011;20784;51.332;12.410;2022-08-19T02:27:19;34.50;;;29.05;;
34541;SDS011;20784;51.332;12.410;2022-08-19T02:29:56;34.75;;;27.80;;
34541;SDS011;20784;51.332;12.410;2022-08-19T02:32:26;31.50;;;28.07;;
34541;SDS011;20784;51.332;12.410;2022-08-19T02:34:58;32.50;;;28.00;;
34541;SDS011;20784;51.332;12.410;2022-08-19T02:37:26;30.63;;;26.98;;
34541;SDS011;20784;51.332;12.410;2022-08-19T02:40:11;31.10;;;26.95;;
34541;SDS011;20784;51.332;12.410;2022-08-19T02:42:42;31.10;;;25.55;;
34541;SDS011;20784;51.332;12.410;2022-08-19T02:45:09;29.08;;;25.63;;
34541;SDS011;20784;51.332;12.410;2022-08-19T02:47:34;30.02;;;25.30;;
34541;SDS011;20784;51.332;12.410;2022-08-19T02:50:09;27.23;;;23.70;;
34541;SDS011;20784;51.332;12.410;2022-08-19T02:52:44;27.10;;;22.42;;
34541;SDS011;20784;51.332;12.410;2022-08-19T02:55:13;29.30;;;23.73;;
34541;SDS011;20784;51.332;12.410;2022-08-19T02:57:56;31.45;;;24.13;;
34541;SDS011;20784;51.332;12.410;2022-08-19T03:00:22;27.05;;;23.83;;
34541;SDS011;20784;51.332;12.410;2022-08-19T03:02:55;24.83;;;22.08;;
34541;SDS011;20784;51.332;12.410;2022-08-19T03:05:25;25.02;;;22.10;;
34541;SDS011;20784;51.332;12.410;2022-08-19T03:08:11;27.13;;;21.40;;
34541;SDS011;20784;51.332;12.410;2022-08-19T03:10:46;24.65;;;21.20;;
34541;SDS011;20784;51.332;12.410;2022-08-19T03:13:17;24.58;;;21.85;;
34541;SDS011;20784;51.332;12.410;2022-08-19T03:15:47;21.45;;;19.10;;
34541;SDS011;20784;51.332;12.410;2022-08-19T03:18:28;24.20;;;20.85;;
34541;SDS011;20784;51.332;12.410;2022-08-19T03:21:21;22.58;;;20.02;;
34541;SDS011;20784;51.332;12.410;2022-08-19T03:23:50;21.83;;;19.52;;
34541;SDS011;20784;51.332;12.410;2022-08-19T03:26:27;20.95;;;18.55;;
34541;SDS011;20784;51.332;12.410;2022-08-19T03:29:17;21.50;;;18.90;;
34541;SDS011;20784;51.332;12.410;2022-08-19T03:32:13;20.02;;;17.77;;
34541;SDS011;20784;51.332;12.410;2022-08-19T03:34:46;21.90;;;17.67;;
34541;SDS011;20784;51.332;12.410;2022-08-19T03:37:21;21.52;;;17.35;;
34541;SDS011;20784;51.332;12.410;2022-08-19T03:43:19;19.55;;;16.70;;
34541;SDS011;20784;51.332;12.410;2022-08-19T03:45:58;17.27;;;15.30;;
34541;SDS011;20784;51.332;12.410;2022-08-19T03:48:39;19.42;;;16.30;;
34541;SDS011;20784;51.332;12.410;2022-08-19T03:51:16;19.52;;;17.42;;
34541;SDS011;20784;51.332;12.410;2022-08-19T03:53:47;19.27;;;16.92;;
34541;SDS011;20784;51.332;12.410;2022-08-19T03:56:23;18.50;;;16.15;;
34541;SDS011;20784;51.332;12.410;2022-08-19T03:59:17;20.23;;;16.83;;
34541;SDS011;20784;51.332;12.410;2022-08-19T04:02:14;20.17;;;15.52;;
34541;SDS011;20784;51.332;12.410;2022-08-19T04:04:54;19.67;;;16.05;;
34541;SDS011;20784;51.332;12.410;2022-08-19T04:07:23;19.45;;;15.88;;
34541;SDS011;20784;51.332;12.410;2022-08-19T04:10:26;19.65;;;14.82;;
34541;SDS011;20784;51.332;12.410;2022-08-19T04:13:05;16.42;;;14.77;;
34541;SDS011;20784;51.332;12.410;2022-08-19T04:15:32;17.42;;;15.63;;
34541;SDS011;20784;51.332;12.410;2022-08-19T04:18:08;20.10;;;15.48;;
34541;SDS011;20784;51.332;12.410;2022-08-19T04:20:44;18.27;;;15.20;;
34541;SDS011;20784;51.332;12.410;2022-08-19T04:23:16;18.15;;;15.60;;
34541;SDS011;20784;51.332;12.410;2022-08-19T04:25:43;18.63;;;16.73;;
34541;SDS011;20784;51.332;12.410;2022-08-19T04:28:15;21.10;;;17.35;;
34541;SDS011;20784;51.332;12.410;2022-08-19T04:30:44;21.15;;;16.65;;
34541;SDS011;20784;51.332;12.410;2022-08-19T04:33:12;22.15;;;18.73;;
34541;SDS011;20784;51.332;12.410;2022-08-19T04:35:41;20.73;;;18.50;;
34541;SDS011;20784;51.332;12.410;2022-08-19T04:38:10;24.33;;;19.15;;
34541;SDS011;20784;51.332;12.410;2022-08-19T04:40:43;23.10;;;19.95;;
34541;SDS011;20784;51.332;12.410;2022-08-19T04:43:29;25.00;;;21.20;;
34541;SDS011;20784;51.332;12.410;2022-08-19T04:46:04;26.08;;;21.73;;
34541;SDS011;20784;51.332;12.410;2022-08-19T04:48:31;25.67;;;22.17;;
34541;SDS011;20784;51.332;12.410;2022-08-19T04:51:18;28.02;;;21.67;;
34541;SDS011;20784;51.332;12.410;2022-08-19T04:53:45;28.77;;;22.50;;
34541;SDS011;20784;51.332;12.410;2022-08-19T04:56:20;26.77;;;22.13;;
34541;SDS011;20784;51.332;12.410;2022-08-19T04:58:47;25.85;;;22.55;;
34541;SDS011;20784;51.332;12.410;2022-08-19T05:01:23;29.15;;;23.67;;
34541;SDS011;20784;51.332;12.410;2022-08-19T05:03:57;25.67;;;22.90;;
34541;SDS011;20784;51.332;12.410;2022-08-19T05:06:31;28.50;;;23.33;;
34541;SDS011;20784;51.332;12.410;2022-08-19T05:09:18;26.40;;;23.50;;
34541;SDS011;20784;51.332;12.410;2022-08-19T05:11:50;29.15;;;25.75;;
34541;SDS011;20784;51.332;12.410;2022-08-19T05:14:18;31.13;;;27.00;;
34541;SDS011;20784;51.332;12.410;2022-08-19T05:17:19;29.92;;;25.55;;
34541;SDS011;20784;51.332;12.410;2022-08-19T05:23:35;31.20;;;27.73;;
34541;SDS011;20784;51.332;12.410;2022-08-19T05:26:14;33.92;;;30.05;;
34541;SDS011;20784;51.332;12.410;2022-08-19T05:28:40;34.45;;;28.30;;
34541;SDS011;20784;51.332;12.410;2022-08-19T05:31:08;39.22;;;31.23;;
34541;SDS011;20784;51.332;12.410;2022-08-19T05:33:42;36.40;;;31.65;;
34541;SDS011;20784;51.332;12.410;2022-08-19T05:36:11;37.83;;;30.10;;
34541;SDS011;20784;51.332;12.410;2022-08-19T05:38:40;36.95;;;32.03;;
34541;SDS011;20784;51.332;12.410;2022-08-19T05:41:07;34.55;;;30.05;;
34541;SDS011;20784;51.332;12.410;2022-08-19T05:43:37;36.25;;;29.17;;
34541;SDS011;20784;51.332;12.410;2022-08-19T05:46:06;40.10;;;31.30;;
34541;SDS011;20784;51.332;12.410;2022-08-19T05:48:33;37.42;;;31.85;;
34541;SDS011;20784;51.332;12.410;2022-08-19T05:51:05;45.78;;;34.95;;
34541;SDS011;20784;51.332;12.410;2022-08-19T05:53:34;44.53;;;33.25;;
34541;SDS011;20784;51.332;12.410;2022-08-19T05:56:04;43.55;;;33.83;;
34541;SDS011;20784;51.332;12.410;2022-08-19T05:58:30;41.85;;;33.53;;
34541;SDS011;20784;51.332;12.410;2022-08-19T06:00:58;44.58;;;35.10;;
34541;SDS011;20784;51.332;12.410;2022-08-19T06:03:32;45.17;;;35.13;;
34541;SDS011;20784;51.332;12.410;2022-08-19T06:06:01;42.50;;;34.85;;
34541;SDS011;20784;51.332;12.410;2022-08-19T06:08:50;46.47;;;36.30;;
34541;SDS011;20784;51.332;12.410;2022-08-19T06:14:30;43.03;;;34.53;;
34541;SDS011;20784;51.332;12.410;2022-08-19T06:17:02;45.25;;;35.83;;
34541;SDS011;20784;51.332;12.410;2022-08-19T06:19:56;44.28;;;35.63;;
34541;SDS011;20784;51.332;12.410;2022-08-19T06:29:37;44.40;;;37.95;;
34541;SDS011;20784;51.332;12.410;2022-08-19T06:35:20;48.78;;;37.40;;
34541;SDS011;20784;51.332;12.410;2022-08-19T06:38:19;47.50;;;35.83;;
34541;SDS011;20784;51.332;12.410;2022-08-19T06:41:47;48.33;;;36.65;;
34541;SDS011;20784;51.332;12.410;2022-08-19T06:47:42;43.55;;;35.67;;
34541;SDS011;20784;51.332;12.410;2022-08-19T06:51:07;41.95;;;34.80;;
34541;SDS011;20784;51.332;12.410;2022-08-19T06:53:43;49.45;;;36.42;;
34541;SDS011;20784;51.332;12.410;2022-08-19T06:56:22;43.03;;;35.90;;
34541;SDS011;20784;51.332;12.410;2022-08-19T06:59:23;52.20;;;37.95;;
34541;SDS011;20784;51.332;12.410;2022-08-19T07:01:58;49.65;;;36.60;;
34541;SDS011;20784;51.332;12.410;2022-08-19T07:04:39;47.88;;;35.60;;
34541;SDS011;20784;51.332;12.410;2022-08-19T07:07:36;50.40;;;36.40;;
34541;SDS011;20784;51.332;12.410;2022-08-19T07:10:14;46.58;;;35.22;;
34541;SDS011;20784;51.332;12.410;2022-08-19T07:13:15;47.25;;;35.78;;
34541;SDS011;20784;51.332;12.410;2022-08-19T07:15:47;47.47;;;38.00;;
34541;SDS011;20784;51.332;12.410;2022-08-19T07:18:43;50.88;;;36.75;;
34541;SDS011;20784;51.332;12.410;2022-08-19T07:21:19;49.35;;;36.17;;
34541;SDS011;20784;51.332;12.410;2022-08-19T07:23:58;49.63;;;36.92;;
34541;SDS011;20784;51.332;12.410;2022-08-19T07:26:39;57.00;;;36.97;;
34541;SDS011;20784;51.332;12.410;2022-08-19T07:29:09;46.77;;;34.43;;
34541;SDS011;20784;51.332;12.410;2022-08-19T07:31:46;48.72;;;33.42;;
34541;SDS011;20784;51.332;12.410;2022-08-19T07:34:12;48.50;;;34.38;;
34541;SDS011;20784;51.332;12.410;2022-08-19T07:36:42;47.90;;;33.80;;
34541;SDS011;20784;51.332;12.410;2022-08-19T07:45:31;49.28;;;35.58;;
34541;SDS011;20784;51.332;12.410;2022-08-19T07:48:12;48.83;;;34.40;;
34541;SDS011;20784;51.332;12.410;2022-08-19T07:50:56;49.63;;;35.10;;
34541;SDS011;20784;51.332;12.410;2022-08-19T07:53:44;49.33;;;33.25;;
34541;SDS011;20784;51.332;12.410;2022-08-19T07:59:28;44.42;;;32.40;;
34541;SDS011;20784;51.332;12.410;2022-08-19T08:06:24;41.13;;;30.52;;
34541;SDS011;20784;51.332;12.410;2022-08-19T08:09:15;47.53;;;33.13;;
34541;SDS011;20784;51.332;12.410;2022-08-19T08:12:27;45.97;;;31.45;;
34541;SDS011;20784;51.332;12.410;2022-08-19T08:15:21;41.85;;;31.77;;
34541;SDS011;20784;51.332;12.410;2022-08-19T08:21:18;41.10;;;30.67;;
34541;SDS011;20784;51.332;12.410;2022-08-19T08:24:05;46.43;;;32.77;;
34541;SDS011;20784;51.332;12.410;2022-08-19T08:27:03;41.75;;;30.98;;
34541;SDS011;20784;51.332;12.410;2022-08-19T08:29:30;38.03;;;29.55;;
34541;SDS011;20784;51.332;12.410;2022-08-19T08:32:05;42.72;;;31.10;;
34541;SDS011;20784;51.332;12.410;2022-08-19T08:34:45;47.33;;;32.80;;
34541;SDS011;20784;51.332;12.410;2022-08-19T08:37:21;47.55;;;32.50;;
34541;SDS011;20784;51.332;12.410;2022-08-19T08:49:43;37.58;;;29.40;;
34541;SDS011;20784;51.332;12.410;2022-08-19T08:52:35;39.97;;;31.50;;
34541;SDS011;20784;51.332;12.410;2022-08-19T08:55:10;39.90;;;29.27;;
34541;SDS011;20784;51.332;12.410;2022-08-19T08:57:52;37.30;;;29.80;;
34541;SDS011;20784;51.332;12.410;2022-08-19T09:10:28;39.58;;;28.08;;
34541;SDS011;20784;51.332;12.410;2022-08-19T09:13:57;38.58;;;27.23;;
34541;SDS011;20784;51.332;12.410;2022-08-19T09:16:27;40.17;;;28.27;;
34541;SDS011;20784;51.332;12.410;2022-08-19T09:19:36;38.53;;;28.42;;
34541;SDS011;20784;51.332;12.410;2022-08-19T09:22:24;39.92;;;27.90;;
34541;SDS011;20784;51.332;12.410;2022-08-19T09:25:14;39.97;;;27.25;;
34541;SDS011;20784;51.332;12.410;2022-08-19T09:28:12;38.35;;;27.75;;
34541;SDS011;20784;51.332;12.410;2022-08-19T09:31:10;35.72;;;28.00;;
34541;SDS011;20784;51.332;12.410;2022-08-19T09:33:39;37.75;;;27.67;;
34541;SDS011;20784;51.332;12.410;2022-08-19T09:36:13;38.67;;;28.10;;
34541;SDS011;20784;51.332;12.410;2022-08-19T09:38:53;36.60;;;27.38;;
34541;SDS011;20784;51.332;12.410;2022-08-19T09:41:42;42.58;;;27.02;;
34541;SDS011;20784;51.332;12.410;2022-08-19T09:44:08;36.55;;;27.30;;
34541;SDS011;20784;51.332;12.410;2022-08-19T09:46:48;45.75;;;29.17;;
34541;SDS011;20784;51.332;12.410;2022-08-19T09:49:34;45.65;;;28.73;;
34541;SDS011;20784;51.332;12.410;2022-08-19T09:52:11;37.92;;;27.90;;
34541;SDS011;20784;51.332;12.410;2022-08-19T09:54:37;39.33;;;28.40;;
34541;SDS011;20784;51.332;12.410;2022-08-19T09:57:24;36.88;;;28.10;;
34541;SDS011;20784;51.332;12.410;2022-08-19T10:03:02;37.30;;;26.92;;
34541;SDS011;20784;51.332;12.410;2022-08-19T10:05:28;32.78;;;26.63;;
34541;SDS011;20784;51.332;12.410;2022-08-19T10:08:28;39.78;;;25.60;;
34541;SDS011;20784;51.332;12.410;2022-08-19T10:11:09;33.75;;;25.70;;
34541;SDS011;20784;51.332;12.410;2022-08-19T10:14:02;33.08;;;24.65;;
34541;SDS011;20784;51.332;12.410;2022-08-19T10:17:07;30.45;;;23.45;;
34541;SDS011;20784;51.332;12.410;2022-08-19T10:19:54;30.20;;;22.98;;
34541;SDS011;20784;51.332;12.410;2022-08-19T10:22:27;27.98;;;22.50;;
34541;SDS011;20784;51.332;12.410;2022-08-19T10:27:24;26.88;;;21.15;;
34541;SDS011;20784;51.332;12.410;2022-08-19T10:29:49;25.08;;;19.33;;
34541;SDS011;20784;51.332;12.410;2022-08-19T10:32:18;30.45;;;19.63;;
34541;SDS011;20784;51.332;12.410;2022-08-19T10:34:43;24.35;;;18.65;;
34541;SDS011;20784;51.332;12.410;2022-08-19T10:37:12;25.50;;;19.33;;
34541;SDS011;20784;51.332;12.410;2022-08-19T10:39:38;25.70;;;20.00;;
34541;SDS011;20784;51.332;12.410;2022-08-19T10:42:05;25.92;;;19.38;;
34541;SDS011;20784;51.332;12.410;2022-08-19T10:44:32;25.00;;;19.33;;
34541;SDS011;20784;51.332;12.410;2022-08-19T10:47:00;26.00;;;17.70;;
34541;SDS011;20784;51.332;12.410;2022-08-19T10:49:26;22.02;;;18.63;;
34541;SDS011;20784;51.332;12.410;2022-08-19T10:51:51;24.23;;;17.92;;
34541;SDS011;20784;51.332;12.410;2022-08-19T10:54:38;20.20;;;16.92;;
34541;SDS011;20784;51.332;12.410;2022-08-19T11:00:03;22.35;;;16.85;;
34541;SDS011;20784;51.332;12.410;2022-08-19T11:02:37;24.38;;;17.60;;
34541;SDS011;20784;51.332;12.410;2022-08-19T11:05:14;21.80;;;16.08;;
34541;SDS011;20784;51.332;12.410;2022-08-19T11:08:00;25.27;;;16.80;;
34541;SDS011;20784;51.332;12.410;2022-08-19T11:13:40;23.50;;;15.70;;
34541;SDS011;20784;51.332;12.410;2022-08-19T11:16:18;24.38;;;16.70;;
34541;SDS011;20784;51.332;12.410;2022-08-19T11:19:01;26.33;;;16.63;;
34541;SDS011;20784;51.332;12.410;2022-08-19T11:21:42;20.88;;;16.40;;
34541;SDS011;20784;51.332;12.410;2022-08-19T11:24:38;22.52;;;15.98;;
34541;SDS011;20784;51.332;12.410;2022-08-19T11:27:26;23.85;;;16.58;;
34541;SDS011;20784;51.332;12.410;2022-08-19T11:29:55;25.73;;;14.70;;
34541;SDS011;20784;51.332;12.410;2022-08-19T11:32:29;19.52;;;14.13;;
34541;SDS011;20784;51.332;12.410;2022-08-19T11:34:58;20.55;;;14.13;;
34541;SDS011;20784;51.332;12.410;2022-08-19T11:37:24;24.52;;;14.63;;
34541;SDS011;20784;51.332;12.410;2022-08-19T11:39:49;23.70;;;14.85;;
34541;SDS011;20784;51.332;12.410;2022-08-19T11:42:18;20.60;;;14.10;;
34541;SDS011;20784;51.332;12.410;2022-08-19T11:45:02;18.83;;;12.85;;
34541;SDS011;20784;51.332;12.410;2022-08-19T11:47:49;18.50;;;13.30;;
34541;SDS011;20784;51.332;12.410;2022-08-19T11:50:47;19.55;;;12.82;;
34541;SDS011;20784;51.332;12.410;2022-08-19T11:53:22;21.00;;;12.35;;
34541;SDS011;20784;51.332;12.410;2022-08-19T11:56:03;15.27;;;11.52;;
34541;SDS011;20784;51.332;12.410;2022-08-19T11:59:03;17.85;;;12.70;;
34541;SDS011;20784;51.332;12.410;2022-08-19T12:01:40;18.88;;;13.27;;
34541;SDS011;20784;51.332;12.410;2022-08-19T12:06:56;17.20;;;11.27;;
34541;SDS011;20784;51.332;12.410;2022-08-19T12:09:37;16.23;;;11.32;;
34541;SDS011;20784;51.332;12.410;2022-08-19T12:15:07;18.35;;;12.45;;
34541;SDS011;20784;51.332;12.410;2022-08-19T12:17:53;16.33;;;11.65;;
34541;SDS011;20784;51.332;12.410;2022-08-19T12:20:45;19.00;;;12.70;;
34541;SDS011;20784;51.332;12.410;2022-08-19T12:23:20;18.55;;;12.88;;
34541;SDS011;20784;51.332;12.410;2022-08-19T12:25:47;19.33;;;12.95;;
34541;SDS011;20784;51.332;12.410;2022-08-19T12:28:31;17.60;;;12.10;;
34541;SDS011;20784;51.332;12.410;2022-08-19T12:31:11;21.10;;;11.43;;
34541;SDS011;20784;51.332;12.410;2022-08-19T12:33:56;19.77;;;11.68;;
34541;SDS011;20784;51.332;12.410;2022-08-19T12:36:35;19.33;;;11.13;;
34541;SDS011;20784;51.332;12.410;2022-08-19T12:39:01;13.60;;;10.40;;
34541;SDS011;20784;51.332;12.410;2022-08-19T12:41:28;14.45;;;10.50;;
34541;SDS011;20784;51.332;12.410;2022-08-19T12:44:05;12.82;;;11.38;;
34541;SDS011;20784;51.332;12.410;2022-08-19T12:46:37;15.82;;;12.82;;
34541;SDS011;20784;51.332;12.410;2022-08-19T12:49:24;13.20;;;10.30;;
34541;SDS011;20784;51.332;12.410;2022-08-19T12:52:34;20.38;;;10.98;;
34541;SDS011;20784;51.332;12.410;2022-08-19T12:55:21;14.82;;;11.93;;
34541;SDS011;20784;51.332;12.410;2022-08-19T13:01:01;17.38;;;12.35;;
34541;SDS011;20784;51.332;12.410;2022-08-19T13:03:53;19.70;;;11.60;;
34541;SDS011;20784;51.332;12.410;2022-08-19T13:06:27;18.65;;;11.95;;
34541;SDS011;20784;51.332;12.410;2022-08-19T13:12:09;16.38;;;12.15;;
34541;SDS011;20784;51.332;12.410;2022-08-19T13:14:38;16.30;;;12.13;;
34541;SDS011;20784;51.332;12.410;2022-08-19T13:17:15;23.08;;;13.40;;
34541;SDS011;20784;51.332;12.410;2022-08-19T13:19:41;16.45;;;11.98;;
34541;SDS011;20784;51.332;12.410;2022-08-19T13:22:09;21.45;;;11.95;;
34541;SDS011;20784;51.332;12.410;2022-08-19T13:24:50;15.07;;;12.25;;
34541;SDS011;20784;51.332;12.410;2022-08-19T13:27:22;15.65;;;12.77;;
34541;SDS011;20784;51.332;12.410;2022-08-19T13:29:51;18.52;;;11.95;;
34541;SDS011;20784;51.332;12.410;2022-08-19T13:32:35;17.10;;;13.82;;
34541;SDS011;20784;51.332;12.410;2022-08-19T13:35:19;20.77;;;14.43;;
34541;SDS011;20784;51.332;12.410;2022-08-19T13:37:45;19.88;;;14.75;;
34541;SDS011;20784;51.332;12.410;2022-08-19T13:40:13;22.48;;;12.38;;
34541;SDS011;20784;51.332;12.410;2022-08-19T13:42:54;21.08;;;14.45;;
34541;SDS011;20784;51.332;12.410;2022-08-19T13:45:21;21.15;;;13.38;;
34541;SDS011;20784;51.332;12.410;2022-08-19T13:47:55;20.17;;;13.80;;
34541;SDS011;20784;51.332;12.410;2022-08-19T13:53:10;15.65;;;12.65;;
34541;SDS011;20784;51.332;12.410;2022-08-19T13:55:39;16.60;;;13.20;;
34541;SDS011;20784;51.332;12.410;2022-08-19T13:58:24;19.40;;;13.40;;
34541;SDS011;20784;51.332;12.410;2022-08-19T14:01:20;18.10;;;12.88;;
34541;SDS011;20784;51.332;12.410;2022-08-19T14:03:57;16.52;;;11.63;;
34541;SDS011;20784;51.332;12.410;2022-08-19T14:06:25;15.02;;;12.35;;
34541;SDS011;20784;51.332;12.410;2022-08-19T14:09:15;17.70;;;13.18;;
34541;SDS011;20784;51.332;12.410;2022-08-19T14:11:46;18.35;;;13.90;;
34541;SDS011;20784;51.332;12.410;2022-08-19T14:14:15;20.98;;;13.85;;
34541;SDS011;20784;51.332;12.410;2022-08-19T14:16:46;17.70;;;13.52;;
34541;SDS011;20784;51.332;12.410;2022-08-19T14:21:41;19.08;;;13.70;;
34541;SDS011;20784;51.332;12.410;2022-08-19T14:24:09;19.30;;;12.68;;
34541;SDS011;20784;51.332;12.410;2022-08-19T14:26:40;16.33;;;13.52;;
34541;SDS011;20784;51.332;12.410;2022-08-19T14:29:08;18.17;;;13.10;;
34541;SDS011;20784;51.332;12.410;2022-08-19T14:31:34;18.40;;;13.75;;
34541;SDS011;20784;51.332;12.410;2022-08-19T14:34:06;15.20;;;12.38;;
34541;SDS011;20784;51.332;12.410;2022-08-19T14:36:35;14.98;;;11.10;;
34541;SDS011;20784;51.332;12.410;2022-08-19T14:39:22;15.98;;;12.30;;
34541;SDS011;20784;51.332;12.410;2022-08-19T14:41:50;18.00;;;11.05;;
34541;SDS011;20784;51.332;12.410;2022-08-19T14:44:27;15.15;;;11.25;;
34541;SDS011;20784;51.332;12.410;2022-08-19T14:47:12;13.93;;;11.65;;
34541;SDS011;20784;51.332;12.410;2022-08-19T14:49:46;11.80;;;10.55;;
34541;SDS011;20784;51.332;12.410;2022-08-19T14:52:26;15.77;;;10.57;;
34541;SDS011;20784;51.332;12.410;2022-08-19T14:54:57;14.18;;;11.38;;
34541;SDS011;20784;51.332;12.410;2022-08-19T14:57:42;12.00;;;10.23;;
34541;SDS011;20784;51.332;12.410;2022-08-19T15:00:10;13.65;;;10.13;;
34541;SDS011;20784;51.332;12.410;2022-08-19T15:02:54;14.18;;;9.75;;
34541;SDS011;20784;51.332;12.410;2022-08-19T15:05:20;18.98;;;11.27;;
34541;SDS011;20784;51.332;12.410;2022-08-19T15:07:56;15.25;;;11.13;;
34541;SDS011;20784;51.332;12.410;2022-08-19T15:10:50;13.32;;;10.43;;
34541;SDS011;20784;51.332;12.410;2022-08-19T15:13:39;11.98;;;9.50;;
34541;SDS011;20784;51.332;12.410;2022-08-19T15:16:06;13.20;;;10.27;;
34541;SDS011;20784;51.332;12.410;2022-08-19T15:18:43;11.52;;;9.50;;
34541;SDS011;20784;51.332;12.410;2022-08-19T15:21:13;11.25;;;9.10;;
34541;SDS011;20784;51.332;12.410;2022-08-19T15:23:46;11.70;;;9.13;;
34541;SDS011;20784;51.332;12.410;2022-08-19T15:26:21;19.65;;;13.00;;
34541;SDS011;20784;51.332;12.410;2022-08-19T15:31:26;15.60;;;12.55;;
34541;SDS011;20784;51.332;12.410;2022-08-19T15:33:53;20.02;;;13.07;;
34541;SDS011;20784;51.332;12.410;2022-08-19T15:36:50;15.80;;;11.57;;
34541;SDS011;20784;51.332;12.410;2022-08-19T15:39:36;20.40;;;14.90;;
34541;SDS011;20784;51.332;12.410;2022-08-19T15:42:10;17.08;;;14.18;;
34541;SDS011;20784;51.332;12.410;2022-08-19T15:45:04;19.38;;;14.00;;
34541;SDS011;20784;51.332;12.410;2022-08-19T15:50:22;21.20;;;16.33;;
34541;SDS011;20784;51.332;12.410;2022-08-19T15:53:04;20.77;;;15.13;;
34541;SDS011;20784;51.332;12.410;2022-08-19T15:55:42;17.15;;;14.70;;
34541;SDS011;20784;51.332;12.410;2022-08-19T15:58:14;21.15;;;14.45;;
34541;SDS011;20784;51.332;12.410;2022-08-19T16:01:06;24.40;;;16.92;;
34541;SDS011;20784;51.332;12.410;2022-08-19T16:03:54;21.23;;;16.55;;
34541;SDS011;20784;51.332;12.410;2022-08-19T16:06:50;22.15;;;16.05;;
34541;SDS011;20784;51.332;12.410;2022-08-19T16:09:26;19.52;;;15.30;;
34541;SDS011;20784;51.332;12.410;2022-08-19T16:12:13;18.48;;;15.10;;
34541;SDS011;20784;51.332;12.410;2022-08-19T16:14:56;20.75;;;15.13;;
34541;SDS011;20784;51.332;12.410;2022-08-19T16:17:32;16.45;;;14.05;;
34541;SDS011;20784;51.332;12.410;2022-08-19T16:20:01;20.83;;;15.20;;
34541;SDS011;20784;51.332;12.410;2022-08-19T16:23:09;20.67;;;15.52;;
34541;SDS011;20784;51.332;12.410;2022-08-19T16:25:35;22.08;;;14.75;;
34541;SDS011;20784;51.332;12.410;2022-08-19T16:28:11;18.88;;;14.20;;
34541;SDS011;20784;51.332;12.410;2022-08-19T16:30:43;19.40;;;13.00;;
34541;SDS011;20784;51.332;12.410;2022-08-19T16:33:25;17.25;;;14.70;;
34541;SDS011;20784;51.332;12.410;2022-08-19T16:36:23;20.63;;;16.13;;
34541;SDS011;20784;51.332;12.410;2022-08-19T16:38:51;23.20;;;14.20;;
34541;SDS011;20784;51.332;12.410;2022-08-19T16:41:34;17.88;;;14.52;;
34541;SDS011;20784;51.332;12.410;2022-08-19T16:44:08;20.65;;;15.38;;
34541;SDS011;20784;51.332;12.410;2022-08-19T16:46:57;20.75;;;14.98;;
34541;SDS011;20784;51.332;12.410;2022-08-19T16:49:57;28.50;;;14.52;;
34541;SDS011;20784;51.332;12.410;2022-08-19T16:52:35;16.98;;;13.35;;
34541;SDS011;20784;51.332;12.410;2022-08-19T16:55:04;19.65;;;15.35;;
34541;SDS011;20784;51.332;12.410;2022-08-19T16:57:52;17.40;;;13.30;;
34541;SDS011;20784;51.332;12.410;2022-08-19T17:07:04;18.55;;;14.23;;
34541;SDS011;20784;51.332;12.410;2022-08-19T17:09:44;15.32;;;12.98;;
34541;SDS011;20784;51.332;12.410;2022-08-19T17:12:13;18.58;;;13.70;;
34541;SDS011;20784;51.332;12.410;2022-08-19T17:14:49;16.38;;;13.32;;
34541;SDS011;20784;51.332;12.410;2022-08-19T17:17:17;16.58;;;12.98;;
34541;SDS011;20784;51.332;12.410;2022-08-19T17:19:46;16.60;;;12.77;;
34541;SDS011;20784;51.332;12.410;2022-08-19T17:22:14;17.98;;;12.77;;
34541;SDS011;20784;51.332;12.410;2022-08-19T17:27:57;14.07;;;12.07;;
34541;SDS011;20784;51.332;12.410;2022-08-19T17:31:02;19.90;;;12.65;;
34541;SDS011;20784;51.332;12.410;2022-08-19T17:33:49;16.48;;;13.38;;